createdAt,value
2022-10-17T00:02:26.397Z,98.47
2022-10-17T00:07:58.191Z,97.84
2022-10-17T00:13:29.932Z,98.61
2022-10-17T00:19:01.601Z,99.4
2022-10-17T00:24:33.290Z,99.29
2022-10-17T00:30:05.083Z,99.31
2022-10-17T00:35:36.825Z,99.58
2022-10-17T00:41:12.885Z,99.73
2022-10-17T00:46:44.605Z,100.0
2022-10-17T00:52:16.417Z,100.0
2022-10-17T00:57:48.081Z,100.0
2022-10-17T01:03:19.801Z,100.0
2022-10-17T01:08:51.509Z,100.0
2022-10-17T01:14:23.237Z,99.94
2022-10-17T01:19:55.247Z,100.0
2022-10-17T01:25:26.685Z,100.0
2022-10-17T01:30:58.441Z,100.0
2022-10-17T01:36:30.099Z,99.36
2022-10-17T01:42:06.242Z,99.76
2022-10-17T01:47:37.982Z,99.39
2022-10-17T01:53:09.652Z,99.99
2022-10-17T01:58:41.402Z,99.75
2022-10-17T02:04:13.134Z,99.49
2022-10-17T02:09:44.881Z,99.22
2022-10-17T02:15:16.589Z,100.0
2022-10-17T02:20:48.294Z,99.71
2022-10-17T02:26:20.134Z,100.0
2022-10-17T02:31:51.799Z,100.0
2022-10-17T02:37:23.502Z,99.1
2022-10-17T02:42:59.526Z,98.94
2022-10-17T02:48:31.321Z,99.44
2022-10-17T02:54:03.108Z,99.35
2022-10-17T03:05:06.542Z,99.27
2022-10-17T03:10:38.211Z,99.18
2022-10-17T03:16:09.961Z,98.93
2022-10-17T03:21:41.659Z,99.2
2022-10-17T03:27:13.418Z,98.69
2022-10-17T03:32:45.151Z,98.08
2022-10-17T03:38:16.850Z,98.76
2022-10-17T03:43:52.946Z,98.11
2022-10-17T03:49:24.650Z,99.09
2022-10-17T03:54:56.434Z,98.35
2022-10-17T04:00:28.054Z,99.17
2022-10-17T04:05:59.871Z,99.67
2022-10-17T04:11:31.559Z,99.66
2022-10-17T04:17:03.306Z,99.13
2022-10-17T04:22:35.022Z,98.79
2022-10-17T04:28:06.629Z,98.87
2022-10-17T04:33:38.442Z,98.22
2022-10-17T04:39:10.244Z,99.31
2022-10-17T04:44:48.306Z,98.81
2022-10-17T04:50:19.989Z,98.96
2022-10-17T04:55:51.761Z,99.39
2022-10-17T05:01:23.610Z,99.62
2022-10-17T05:06:55.133Z,99.4
2022-10-17T05:12:27.405Z,99.5
2022-10-17T05:17:58.693Z,100.0
2022-10-17T05:23:30.610Z,99.63
2022-10-17T05:29:02.260Z,99.97
2022-10-17T05:34:33.745Z,99.25
2022-10-17T05:40:05.634Z,99.25
2022-10-17T05:45:43.750Z,99.1
2022-10-17T05:51:15.305Z,99.27
2022-10-17T05:56:47.041Z,99.39
2022-10-17T06:02:18.930Z,99.32
2022-10-17T06:07:50.557Z,99.32
2022-10-17T06:13:22.226Z,99.03
2022-10-17T06:18:53.952Z,99.12
2022-10-17T06:24:25.719Z,99.33
2022-10-17T06:29:57.441Z,98.89
2022-10-17T06:35:29.157Z,98.96
2022-10-17T06:41:00.867Z,98.81
2022-10-17T06:46:36.986Z,100.0
2022-10-17T06:52:08.699Z,100.0
2022-10-17T06:57:40.427Z,100.0
2022-10-17T07:03:12.147Z,100.0
2022-10-17T07:08:43.903Z,99.13
2022-10-17T07:14:15.640Z,100.0
2022-10-17T07:19:47.331Z,99.59
2022-10-17T07:25:19.038Z,98.6
2022-10-17T07:30:54.719Z,96.76
2022-10-17T07:36:22.530Z,95.84
2022-10-17T07:41:54.363Z,94.94
2022-10-17T07:47:31.683Z,94.83
2022-10-17T07:53:02.083Z,93.75
2022-10-17T07:58:33.818Z,92.79
2022-10-17T08:04:05.496Z,93.08
2022-10-17T08:09:37.269Z,93.32
2022-10-17T08:15:08.941Z,91.11
2022-10-17T08:20:40.581Z,90.21
2022-10-17T08:26:12.397Z,89.75
2022-10-17T08:31:48.996Z,88.82
2022-10-17T08:37:15.909Z,89.11
2022-10-17T08:42:47.559Z,87.63
2022-10-17T08:48:23.666Z,87.99
2022-10-17T08:53:55.364Z,87.41
2022-10-17T08:59:27.310Z,89.03
2022-10-17T09:04:58.834Z,86.23
2022-10-17T09:10:30.532Z,84.95
2022-10-17T09:16:02.308Z,86.05
2022-10-17T09:21:34.024Z,85.67
2022-10-17T09:27:05.816Z,85.31
2022-10-17T09:32:37.483Z,83.67
2022-10-17T09:38:09.249Z,86.22
2022-10-17T09:43:40.963Z,84.49
2022-10-17T09:49:17.791Z,84.8
2022-10-17T09:54:48.743Z,83.89
2022-10-17T10:00:20.531Z,82.2
2022-10-17T10:05:52.223Z,82.45
2022-10-17T10:11:23.977Z,80.87
2022-10-17T10:16:55.802Z,82.01
2022-10-17T10:22:28.060Z,81.1
2022-10-17T10:28:01.873Z,81.92
2022-10-17T10:33:31.795Z,81.17
2022-10-17T10:39:05.139Z,80.84
2022-10-17T10:44:35.117Z,80.99
2022-10-17T10:50:11.209Z,76.67
2022-10-17T10:55:42.909Z,74.99
2022-10-17T11:01:15.108Z,74.35
2022-10-17T11:06:46.399Z,73.82
2022-10-17T11:12:18.119Z,69.47
2022-10-17T11:17:49.843Z,69.22
2022-10-17T11:23:21.585Z,71.19
2022-10-17T11:28:53.473Z,69.29
2022-10-17T11:34:25.011Z,69.5
2022-10-17T11:39:56.986Z,65.63
2022-10-17T11:45:28.512Z,67.12
2022-10-17T11:52:02.769Z,67.77
2022-10-17T11:56:42.911Z,66.0
2022-10-17T12:02:08.190Z,69.9
2022-10-17T12:07:39.839Z,70.38
2022-10-17T12:13:11.482Z,69.03
2022-10-17T12:18:43.354Z,68.84
2022-10-17T12:24:19.123Z,68.32
2022-10-17T12:29:46.659Z,68.69
2022-10-17T12:35:18.385Z,67.67
2022-10-17T12:40:50.122Z,69.08
2022-10-17T12:46:21.833Z,72.82
2022-10-17T12:51:57.916Z,80.0
2022-10-17T12:57:30.419Z,79.75
2022-10-17T13:03:01.747Z,76.37
2022-10-17T13:08:33.102Z,75.56
2022-10-17T13:14:04.871Z,74.84
2022-10-17T13:25:08.235Z,74.28
2022-10-17T13:30:40.229Z,73.12
2022-10-17T13:36:11.750Z,74.34
2022-10-17T13:41:43.490Z,75.1
2022-10-17T13:47:15.267Z,73.26
2022-10-17T13:52:51.306Z,73.09
2022-10-17T13:58:22.970Z,70.72
2022-10-17T14:04:09.609Z,70.94
2022-10-17T14:09:26.423Z,72.71
2022-10-17T14:15:11.278Z,73.73
2022-10-17T14:21:34.222Z,72.54
2022-10-17T14:26:01.610Z,72.2
2022-10-17T14:31:33.330Z,74.54
2022-10-17T14:37:05.039Z,73.5
2022-10-17T14:42:36.894Z,73.84
2022-10-17T14:48:08.532Z,74.57
2022-10-17T14:53:46.625Z,74.44
2022-10-17T14:59:53.200Z,75.19
2022-10-17T15:04:50.071Z,74.69
2022-10-17T15:10:21.767Z,70.99
2022-10-17T15:15:53.532Z,74.35
2022-10-17T15:21:42.040Z,74.42
2022-10-17T15:26:57.037Z,74.97
2022-10-17T15:32:28.729Z,75.28
2022-10-17T15:38:00.460Z,73.84
2022-10-17T15:43:32.258Z,80.64
2022-10-17T15:49:03.917Z,81.9
2022-10-17T15:54:42.037Z,83.23
2022-10-17T16:00:16.948Z,83.47
2022-10-17T16:05:45.503Z,84.22
2022-10-17T16:11:17.160Z,83.82
2022-10-17T16:16:48.857Z,84.56
2022-10-17T16:22:20.589Z,84.94
2022-10-17T16:27:52.457Z,84.56
2022-10-17T16:33:24.116Z,84.95
2022-10-17T16:38:55.858Z,84.38
2022-10-17T16:44:27.627Z,84.86
2022-10-17T16:49:59.318Z,86.05
2022-10-17T16:55:35.422Z,85.75
2022-10-17T17:01:07.199Z,85.58
2022-10-17T17:06:38.922Z,85.7
2022-10-17T17:12:10.545Z,86.52
2022-10-17T17:17:55.208Z,86.31
2022-10-17T17:23:16.214Z,86.61
2022-10-17T17:28:45.890Z,86.58
2022-10-17T17:34:18.692Z,86.65
2022-10-17T17:39:49.198Z,87.19
2022-10-17T17:45:20.919Z,87.46
2022-10-17T17:50:52.680Z,88.0
2022-10-17T17:56:28.793Z,88.43
2022-10-17T18:02:00.752Z,88.41
2022-10-17T18:07:32.236Z,88.66
2022-10-17T18:13:03.937Z,88.58
2022-10-17T18:18:35.666Z,88.84
2022-10-17T18:24:07.359Z,89.32
2022-10-17T18:29:39.092Z,89.83
2022-10-17T18:35:11.096Z,89.37
2022-10-17T18:40:45.089Z,89.74
2022-10-17T18:46:15.348Z,89.88
2022-10-17T18:51:46.147Z,91.06
2022-10-17T18:57:26.561Z,90.83
2022-10-17T19:02:55.899Z,90.54
2022-10-17T19:08:27.544Z,91.07
2022-10-17T19:13:59.459Z,91.19
2022-10-17T19:19:31.038Z,91.96
2022-10-17T19:25:02.746Z,92.11
2022-10-17T19:30:34.434Z,92.0
2022-10-17T19:36:06.326Z,92.13
2022-10-17T19:41:38.023Z,93.47
2022-10-17T19:47:09.751Z,92.75
2022-10-17T19:52:41.458Z,92.69
2022-10-17T19:58:17.537Z,92.81
2022-10-17T20:03:49.346Z,93.69
2022-10-17T20:09:20.977Z,93.95
2022-10-17T20:14:52.700Z,94.94
2022-10-17T20:20:24.382Z,93.88
2022-10-17T20:31:27.870Z,95.12
2022-10-17T20:36:59.583Z,94.99
2022-10-17T20:42:31.413Z,95.17
2022-10-17T20:48:03.123Z,95.17
2022-10-17T20:53:37.904Z,95.37
2022-10-17T20:59:10.879Z,94.82
2022-10-17T21:04:47.506Z,95.26
2022-10-17T21:10:35.741Z,95.44
2022-10-17T21:15:46.086Z,96.23
2022-10-17T21:21:17.801Z,96.88
2022-10-17T21:26:49.533Z,96.72
2022-10-17T21:32:50.980Z,97.83
2022-10-17T21:37:52.988Z,97.16
2022-10-17T21:43:24.731Z,98.12
2022-10-17T21:48:56.449Z,97.76
2022-10-17T21:54:28.233Z,97.02
2022-10-17T22:00:04.371Z,97.17
2022-10-17T22:05:36.097Z,97.58
2022-10-17T22:11:07.837Z,97.59
2022-10-17T22:16:39.517Z,97.48
2022-10-17T22:22:11.270Z,97.67
2022-10-17T22:27:43.050Z,97.34
2022-10-17T22:33:14.769Z,97.4
2022-10-17T22:38:46.477Z,97.21
2022-10-17T22:44:18.215Z,96.88
2022-10-17T22:49:49.865Z,97.45
2022-10-17T22:55:21.633Z,96.94
2022-10-17T23:00:57.730Z,97.36
2022-10-17T23:06:29.457Z,96.84
2022-10-17T23:12:01.216Z,96.52
2022-10-17T23:17:32.928Z,97.05
2022-10-17T23:23:04.812Z,97.41
2022-10-17T23:28:36.536Z,97.85
2022-10-17T23:34:08.129Z,97.02
2022-10-17T23:39:39.804Z,96.9
2022-10-17T23:45:11.593Z,97.03
2022-10-17T23:50:43.317Z,97.24
2022-10-17T23:56:14.998Z,97.63
